sensor_id;sensor_type;location;lat;lon;timestamp;P1;durP1;ratioP1;P2;durP2;ratioP2
68196;SDS011;55019;49.382;11.358;2023-02-18T00:01:39;1.70;;;1.20;;
68196;SDS011;55019;49.382;11.358;2023-02-18T00:04:05;1.60;;;1.40;;
68196;SDS011;55019;49.382;11.358;2023-02-18T00:06:32;2.38;;;1.40;;
68196;SDS011;55019;49.382;11.358;2023-02-18T00:08:58;2.17;;;1.65;;
68196;SDS011;55019;49.382;11.358;2023-02-18T00:11:26;3.25;;;1.60;;
68196;SDS011;55019;49.382;11.358;2023-02-18T00:13:57;1.83;;;1.33;;
68196;SDS011;55019;49.382;11.358;2023-02-18T00:16:24;1.63;;;1.50;;
68196;SDS011;55019;49.382;11.358;2023-02-18T00:18:53;2.72;;;2.13;;
68196;SDS011;55019;49.382;11.358;2023-02-18T00:21:21;2.47;;;1.55;;
68196;SDS011;55019;49.382;11.358;2023-02-18T00:23:46;3.40;;;1.85;;
68196;SDS011;55019;49.382;11.358;2023-02-18T00:26:13;2.40;;;1.67;;
68196;SDS011;55019;49.382;11.358;2023-02-18T00:28:40;2.53;;;1.85;;
68196;SDS011;55019;49.382;11.358;2023-02-18T00:31:07;2.97;;;2.05;;
68196;SDS011;55019;49.382;11.358;2023-02-18T00:33:34;2.40;;;1.70;;
68196;SDS011;55019;49.382;11.358;2023-02-18T00:36:04;3.15;;;1.80;;
68196;SDS011;55019;49.382;11.358;2023-02-18T00:38:32;2.60;;;1.80;;
68196;SDS011;55019;49.382;11.358;2023-02-18T00:40:58;2.08;;;1.45;;
68196;SDS011;55019;49.382;11.358;2023-02-18T00:43:25;2.35;;;1.80;;
68196;SDS011;55019;49.382;11.358;2023-02-18T00:45:51;2.03;;;1.65;;
68196;SDS011;55019;49.382;11.358;2023-02-18T00:48:16;2.80;;;1.88;;
68196;SDS011;55019;49.382;11.358;2023-02-18T00:50:41;2.83;;;1.83;;
68196;SDS011;55019;49.382;11.358;2023-02-18T00:53:07;2.78;;;1.70;;
68196;SDS011;55019;49.382;11.358;2023-02-18T00:55:37;2.10;;;1.67;;
68196;SDS011;55019;49.382;11.358;2023-02-18T00:58:03;2.92;;;2.05;;
68196;SDS011;55019;49.382;11.358;2023-02-18T01:00:29;2.08;;;1.55;;
68196;SDS011;55019;49.382;11.358;2023-02-18T01:02:54;2.95;;;1.80;;
68196;SDS011;55019;49.382;11.358;2023-02-18T01:05:19;2.25;;;1.70;;
68196;SDS011;55019;49.382;11.358;2023-02-18T01:07:45;3.13;;;1.83;;
68196;SDS011;55019;49.382;11.358;2023-02-18T01:10:11;2.28;;;1.70;;
68196;SDS011;55019;49.382;11.358;2023-02-18T01:12:36;2.30;;;1.85;;
68196;SDS011;55019;49.382;11.358;2023-02-18T01:15:03;1.88;;;1.60;;
68196;SDS011;55019;49.382;11.358;2023-02-18T01:17:29;2.92;;;1.63;;
68196;SDS011;55019;49.382;11.358;2023-02-18T01:19:55;3.20;;;1.70;;
68196;SDS011;55019;49.382;11.358;2023-02-18T01:22:20;3.15;;;1.92;;
68196;SDS011;55019;49.382;11.358;2023-02-18T01:24:45;2.53;;;1.70;;
68196;SDS011;55019;49.382;11.358;2023-02-18T01:27:11;2.55;;;1.75;;
68196;SDS011;55019;49.382;11.358;2023-02-18T01:29:36;3.53;;;2.17;;
68196;SDS011;55019;49.382;11.358;2023-02-18T01:32:02;2.25;;;1.83;;
68196;SDS011;55019;49.382;11.358;2023-02-18T01:34:27;2.50;;;1.70;;
68196;SDS011;55019;49.382;11.358;2023-02-18T01:36:52;2.47;;;1.83;;
68196;SDS011;55019;49.382;11.358;2023-02-18T01:39:18;2.67;;;2.05;;
68196;SDS011;55019;49.382;11.358;2023-02-18T01:41:43;2.88;;;2.20;;
68196;SDS011;55019;49.382;11.358;2023-02-18T01:44:09;2.95;;;1.90;;
68196;SDS011;55019;49.382;11.358;2023-02-18T01:46:45;3.95;;;1.98;;
68196;SDS011;55019;49.382;11.358;2023-02-18T01:49:12;3.00;;;1.90;;
68196;SDS011;55019;49.382;11.358;2023-02-18T01:51:43;2.97;;;1.95;;
68196;SDS011;55019;49.382;11.358;2023-02-18T01:54:17;2.47;;;1.92;;
68196;SDS011;55019;49.382;11.358;2023-02-18T01:59:20;2.55;;;1.70;;
68196;SDS011;55019;49.382;11.358;2023-02-18T02:01:52;3.50;;;2.22;;
68196;SDS011;55019;49.382;11.358;2023-02-18T02:04:18;2.00;;;1.80;;
68196;SDS011;55019;49.382;11.358;2023-02-18T02:06:44;2.47;;;2.08;;
68196;SDS011;55019;49.382;11.358;2023-02-18T02:09:12;2.42;;;1.63;;
68196;SDS011;55019;49.382;11.358;2023-02-18T02:14:21;2.47;;;1.80;;
68196;SDS011;55019;49.382;11.358;2023-02-18T02:17:45;3.00;;;1.80;;
68196;SDS011;55019;49.382;11.358;2023-02-18T02:21:19;2.13;;;1.63;;
68196;SDS011;55019;49.382;11.358;2023-02-18T02:29:52;3.40;;;1.40;;
68196;SDS011;55019;49.382;11.358;2023-02-18T02:35:24;1.80;;;1.40;;
68196;SDS011;55019;49.382;11.358;2023-02-18T02:40:53;2.17;;;1.60;;
68196;SDS011;55019;49.382;11.358;2023-02-18T02:46:17;2.03;;;1.52;;
68196;SDS011;55019;49.382;11.358;2023-02-18T02:54:09;2.37;;;1.90;;
68196;SDS011;55019;49.382;11.358;2023-02-18T02:56:41;2.17;;;1.60;;
68196;SDS011;55019;49.382;11.358;2023-02-18T02:59:09;3.10;;;1.67;;
68196;SDS011;55019;49.382;11.358;2023-02-18T03:15:37;1.80;;;1.65;;
68196;SDS011;55019;49.382;11.358;2023-02-18T03:20:55;2.15;;;1.88;;
68196;SDS011;55019;49.382;11.358;2023-02-18T03:23:28;1.73;;;1.60;;
68196;SDS011;55019;49.382;11.358;2023-02-18T03:25:59;2.15;;;1.58;;
68196;SDS011;55019;49.382;11.358;2023-02-18T03:28:27;2.55;;;1.85;;
68196;SDS011;55019;49.382;11.358;2023-02-18T03:30:58;2.35;;;1.80;;
68196;SDS011;55019;49.382;11.358;2023-02-18T03:33:30;2.33;;;1.63;;
68196;SDS011;55019;49.382;11.358;2023-02-18T03:36:09;2.55;;;1.75;;
68196;SDS011;55019;49.382;11.358;2023-02-18T03:38:47;3.17;;;1.63;;
68196;SDS011;55019;49.382;11.358;2023-02-18T03:41:18;3.75;;;1.95;;
68196;SDS011;55019;49.382;11.358;2023-02-18T03:43:48;2.28;;;1.90;;
68196;SDS011;55019;49.382;11.358;2023-02-18T03:46:16;3.08;;;2.13;;
68196;SDS011;55019;49.382;11.358;2023-02-18T03:48:42;2.42;;;1.80;;
68196;SDS011;55019;49.382;11.358;2023-02-18T03:51:08;2.40;;;1.90;;
68196;SDS011;55019;49.382;11.358;2023-02-18T03:53:34;2.63;;;2.22;;
68196;SDS011;55019;49.382;11.358;2023-02-18T03:55:59;2.47;;;2.08;;
68196;SDS011;55019;49.382;11.358;2023-02-18T03:58:24;2.70;;;2.05;;
68196;SDS011;55019;49.382;11.358;2023-02-18T04:00:50;2.40;;;1.80;;
68196;SDS011;55019;49.382;11.358;2023-02-18T04:03:15;2.30;;;1.80;;
68196;SDS011;55019;49.382;11.358;2023-02-18T04:05:41;2.95;;;1.75;;
68196;SDS011;55019;49.382;11.358;2023-02-18T04:08:06;2.83;;;2.10;;
68196;SDS011;55019;49.382;11.358;2023-02-18T04:10:31;2.78;;;1.98;;
68196;SDS011;55019;49.382;11.358;2023-02-18T04:12:57;3.92;;;2.08;;
68196;SDS011;55019;49.382;11.358;2023-02-18T04:15:22;2.58;;;1.92;;
68196;SDS011;55019;49.382;11.358;2023-02-18T04:17:48;2.40;;;1.85;;
68196;SDS011;55019;49.382;11.358;2023-02-18T04:20:13;2.60;;;2.30;;
68196;SDS011;55019;49.382;11.358;2023-02-18T04:22:40;2.42;;;1.90;;
68196;SDS011;55019;49.382;11.358;2023-02-18T04:25:06;2.30;;;1.98;;
68196;SDS011;55019;49.382;11.358;2023-02-18T04:27:32;3.53;;;2.03;;
68196;SDS011;55019;49.382;11.358;2023-02-18T04:29:57;3.08;;;2.17;;
68196;SDS011;55019;49.382;11.358;2023-02-18T04:32:22;3.28;;;2.03;;
68196;SDS011;55019;49.382;11.358;2023-02-18T04:34:48;2.75;;;1.83;;
68196;SDS011;55019;49.382;11.358;2023-02-18T04:37:13;2.97;;;2.08;;
68196;SDS011;55019;49.382;11.358;2023-02-18T04:39:39;3.08;;;2.30;;
68196;SDS011;55019;49.382;11.358;2023-02-18T04:42:04;3.13;;;2.00;;
68196;SDS011;55019;49.382;11.358;2023-02-18T04:44:33;5.18;;;2.30;;
68196;SDS011;55019;49.382;11.358;2023-02-18T04:46:59;3.03;;;2.10;;
68196;SDS011;55019;49.382;11.358;2023-02-18T04:49:25;3.00;;;2.10;;
68196;SDS011;55019;49.382;11.358;2023-02-18T04:51:50;3.50;;;2.38;;
68196;SDS011;55019;49.382;11.358;2023-02-18T04:54:16;3.25;;;2.30;;
68196;SDS011;55019;49.382;11.358;2023-02-18T04:56:41;2.70;;;2.28;;
68196;SDS011;55019;49.382;11.358;2023-02-18T04:59:07;4.10;;;2.60;;
68196;SDS011;55019;49.382;11.358;2023-02-18T05:01:32;3.78;;;2.20;;
68196;SDS011;55019;49.382;11.358;2023-02-18T05:03:57;3.15;;;2.53;;
68196;SDS011;55019;49.382;11.358;2023-02-18T05:06:23;2.67;;;2.20;;
68196;SDS011;55019;49.382;11.358;2023-02-18T05:08:48;2.85;;;2.25;;
68196;SDS011;55019;49.382;11.358;2023-02-18T05:11:14;2.83;;;2.33;;
68196;SDS011;55019;49.382;11.358;2023-02-18T05:13:39;3.55;;;2.83;;
68196;SDS011;55019;49.382;11.358;2023-02-18T05:16:04;4.03;;;2.58;;
68196;SDS011;55019;49.382;11.358;2023-02-18T05:18:30;3.25;;;2.15;;
68196;SDS011;55019;49.382;11.358;2023-02-18T05:20:55;5.63;;;2.85;;
68196;SDS011;55019;49.382;11.358;2023-02-18T05:23:21;3.35;;;2.38;;
68196;SDS011;55019;49.382;11.358;2023-02-18T05:25:46;3.90;;;2.35;;
68196;SDS011;55019;49.382;11.358;2023-02-18T05:28:11;5.70;;;2.80;;
68196;SDS011;55019;49.382;11.358;2023-02-18T05:30:37;4.30;;;2.30;;
68196;SDS011;55019;49.382;11.358;2023-02-18T05:33:03;4.55;;;2.75;;
68196;SDS011;55019;49.382;11.358;2023-02-18T05:35:28;3.45;;;2.40;;
68196;SDS011;55019;49.382;11.358;2023-02-18T05:37:53;3.00;;;2.47;;
68196;SDS011;55019;49.382;11.358;2023-02-18T05:40:19;4.05;;;2.70;;
68196;SDS011;55019;49.382;11.358;2023-02-18T05:42:44;3.28;;;2.40;;
68196;SDS011;55019;49.382;11.358;2023-02-18T05:45:10;2.70;;;2.13;;
68196;SDS011;55019;49.382;11.358;2023-02-18T05:47:35;3.38;;;2.08;;
68196;SDS011;55019;49.382;11.358;2023-02-18T05:50:01;3.60;;;2.20;;
68196;SDS011;55019;49.382;11.358;2023-02-18T05:52:27;4.35;;;2.08;;
68196;SDS011;55019;49.382;11.358;2023-02-18T05:54:52;3.13;;;2.25;;
68196;SDS011;55019;49.382;11.358;2023-02-18T05:57:18;4.40;;;2.85;;
68196;SDS011;55019;49.382;11.358;2023-02-18T05:59:43;4.55;;;2.55;;
68196;SDS011;55019;49.382;11.358;2023-02-18T06:02:09;3.63;;;2.40;;
68196;SDS011;55019;49.382;11.358;2023-02-18T06:04:34;4.93;;;2.67;;
68196;SDS011;55019;49.382;11.358;2023-02-18T06:07:00;5.85;;;2.60;;
68196;SDS011;55019;49.382;11.358;2023-02-18T06:09:25;4.20;;;2.55;;
68196;SDS011;55019;49.382;11.358;2023-02-18T06:11:50;4.50;;;2.70;;
68196;SDS011;55019;49.382;11.358;2023-02-18T06:14:16;4.13;;;3.08;;
68196;SDS011;55019;49.382;11.358;2023-02-18T06:16:42;4.28;;;2.85;;
68196;SDS011;55019;49.382;11.358;2023-02-18T06:19:07;5.90;;;3.03;;
68196;SDS011;55019;49.382;11.358;2023-02-18T06:21:32;3.65;;;3.13;;
68196;SDS011;55019;49.382;11.358;2023-02-18T06:23:58;4.10;;;3.03;;
68196;SDS011;55019;49.382;11.358;2023-02-18T06:26:23;5.15;;;3.35;;
68196;SDS011;55019;49.382;11.358;2023-02-18T06:28:49;5.22;;;3.28;;
68196;SDS011;55019;49.382;11.358;2023-02-18T06:31:14;4.88;;;3.30;;
68196;SDS011;55019;49.382;11.358;2023-02-18T06:33:40;5.70;;;3.47;;
68196;SDS011;55019;49.382;11.358;2023-02-18T06:36:06;5.28;;;3.22;;
68196;SDS011;55019;49.382;11.358;2023-02-18T06:38:35;5.82;;;3.70;;
68196;SDS011;55019;49.382;11.358;2023-02-18T06:41:01;5.95;;;3.38;;
68196;SDS011;55019;49.382;11.358;2023-02-18T06:43:27;5.88;;;3.13;;
68196;SDS011;55019;49.382;11.358;2023-02-18T06:45:52;5.80;;;3.33;;
68196;SDS011;55019;49.382;11.358;2023-02-18T06:48:18;6.05;;;3.38;;
68196;SDS011;55019;49.382;11.358;2023-02-18T06:50:44;6.40;;;3.30;;
68196;SDS011;55019;49.382;11.358;2023-02-18T06:53:09;7.43;;;3.55;;
68196;SDS011;55019;49.382;11.358;2023-02-18T06:55:35;4.38;;;3.25;;
68196;SDS011;55019;49.382;11.358;2023-02-18T06:58:01;5.20;;;3.47;;
68196;SDS011;55019;49.382;11.358;2023-02-18T07:00:26;5.95;;;3.20;;
68196;SDS011;55019;49.382;11.358;2023-02-18T07:02:51;5.28;;;3.28;;
68196;SDS011;55019;49.382;11.358;2023-02-18T07:05:17;6.78;;;3.85;;
68196;SDS011;55019;49.382;11.358;2023-02-18T07:07:42;5.97;;;3.90;;
68196;SDS011;55019;49.382;11.358;2023-02-18T07:10:09;4.10;;;3.15;;
68196;SDS011;55019;49.382;11.358;2023-02-18T07:12:35;4.80;;;3.03;;
68196;SDS011;55019;49.382;11.358;2023-02-18T07:15:00;5.35;;;3.58;;
68196;SDS011;55019;49.382;11.358;2023-02-18T07:17:26;6.70;;;3.42;;
68196;SDS011;55019;49.382;11.358;2023-02-18T07:19:51;5.38;;;3.63;;
68196;SDS011;55019;49.382;11.358;2023-02-18T07:22:17;6.13;;;3.58;;
68196;SDS011;55019;49.382;11.358;2023-02-18T07:24:43;5.93;;;3.88;;
68196;SDS011;55019;49.382;11.358;2023-02-18T07:27:09;6.65;;;4.07;;
68196;SDS011;55019;49.382;11.358;2023-02-18T07:29:34;6.47;;;3.92;;
68196;SDS011;55019;49.382;11.358;2023-02-18T07:32:00;6.63;;;4.00;;
68196;SDS011;55019;49.382;11.358;2023-02-18T07:34:25;7.80;;;3.85;;
68196;SDS011;55019;49.382;11.358;2023-02-18T07:36:50;6.65;;;4.13;;
68196;SDS011;55019;49.382;11.358;2023-02-18T07:39:16;5.95;;;4.53;;
68196;SDS011;55019;49.382;11.358;2023-02-18T07:41:45;5.95;;;4.15;;
68196;SDS011;55019;49.382;11.358;2023-02-18T07:44:12;6.32;;;4.57;;
68196;SDS011;55019;49.382;11.358;2023-02-18T07:46:38;7.53;;;4.90;;
68196;SDS011;55019;49.382;11.358;2023-02-18T07:49:05;7.63;;;4.95;;
68196;SDS011;55019;49.382;11.358;2023-02-18T07:51:30;7.30;;;4.32;;
68196;SDS011;55019;49.382;11.358;2023-02-18T07:53:56;9.20;;;5.47;;
68196;SDS011;55019;49.382;11.358;2023-02-18T07:56:21;6.90;;;4.38;;
68196;SDS011;55019;49.382;11.358;2023-02-18T07:58:47;7.63;;;4.93;;
68196;SDS011;55019;49.382;11.358;2023-02-18T08:01:13;6.43;;;4.15;;
68196;SDS011;55019;49.382;11.358;2023-02-18T08:03:39;8.48;;;4.60;;
68196;SDS011;55019;49.382;11.358;2023-02-18T08:06:05;6.20;;;3.78;;
68196;SDS011;55019;49.382;11.358;2023-02-18T08:08:31;6.40;;;4.18;;
68196;SDS011;55019;49.382;11.358;2023-02-18T08:10:58;6.13;;;4.38;;
68196;SDS011;55019;49.382;11.358;2023-02-18T08:13:31;6.18;;;3.90;;
68196;SDS011;55019;49.382;11.358;2023-02-18T08:15:56;7.65;;;4.80;;
68196;SDS011;55019;49.382;11.358;2023-02-18T08:18:22;6.70;;;4.57;;
68196;SDS011;55019;49.382;11.358;2023-02-18T08:20:49;7.50;;;4.10;;
68196;SDS011;55019;49.382;11.358;2023-02-18T08:23:16;6.30;;;4.57;;
68196;SDS011;55019;49.382;11.358;2023-02-18T08:25:47;7.75;;;4.35;;
68196;SDS011;55019;49.382;11.358;2023-02-18T08:28:14;7.25;;;4.70;;
68196;SDS011;55019;49.382;11.358;2023-02-18T08:30:47;5.90;;;3.90;;
68196;SDS011;55019;49.382;11.358;2023-02-18T08:33:14;6.88;;;4.75;;
68196;SDS011;55019;49.382;11.358;2023-02-18T08:35:40;6.32;;;4.35;;
68196;SDS011;55019;49.382;11.358;2023-02-18T08:38:06;6.18;;;4.18;;
68196;SDS011;55019;49.382;11.358;2023-02-18T08:40:32;6.10;;;3.70;;
68196;SDS011;55019;49.382;11.358;2023-02-18T08:42:57;5.38;;;3.63;;
68196;SDS011;55019;49.382;11.358;2023-02-18T08:45:23;5.20;;;3.92;;
68196;SDS011;55019;49.382;11.358;2023-02-18T08:47:48;4.00;;;3.42;;
68196;SDS011;55019;49.382;11.358;2023-02-18T08:50:14;4.30;;;3.33;;
68196;SDS011;55019;49.382;11.358;2023-02-18T08:52:39;3.05;;;2.40;;
68196;SDS011;55019;49.382;11.358;2023-02-18T08:55:05;4.38;;;3.20;;
68196;SDS011;55019;49.382;11.358;2023-02-18T08:57:30;6.35;;;3.38;;
68196;SDS011;55019;49.382;11.358;2023-02-18T08:59:56;3.95;;;2.95;;
68196;SDS011;55019;49.382;11.358;2023-02-18T09:02:21;4.20;;;3.17;;
68196;SDS011;55019;49.382;11.358;2023-02-18T09:04:47;2.70;;;2.33;;
68196;SDS011;55019;49.382;11.358;2023-02-18T09:07:12;3.38;;;2.63;;
68196;SDS011;55019;49.382;11.358;2023-02-18T09:09:38;3.55;;;2.50;;
68196;SDS011;55019;49.382;11.358;2023-02-18T09:12:03;4.90;;;3.03;;
68196;SDS011;55019;49.382;11.358;2023-02-18T09:14:29;3.15;;;2.45;;
68196;SDS011;55019;49.382;11.358;2023-02-18T09:16:55;4.57;;;2.83;;
68196;SDS011;55019;49.382;11.358;2023-02-18T09:19:22;2.80;;;2.22;;
68196;SDS011;55019;49.382;11.358;2023-02-18T09:21:47;2.45;;;2.08;;
68196;SDS011;55019;49.382;11.358;2023-02-18T09:24:13;2.88;;;2.00;;
68196;SDS011;55019;49.382;11.358;2023-02-18T09:26:38;2.05;;;1.80;;
68196;SDS011;55019;49.382;11.358;2023-02-18T09:29:04;2.55;;;2.30;;
68196;SDS011;55019;49.382;11.358;2023-02-18T09:31:30;2.75;;;2.20;;
68196;SDS011;55019;49.382;11.358;2023-02-18T09:33:59;2.72;;;2.00;;
68196;SDS011;55019;49.382;11.358;2023-02-18T09:36:27;2.78;;;2.08;;
68196;SDS011;55019;49.382;11.358;2023-02-18T09:38:53;2.50;;;1.77;;
68196;SDS011;55019;49.382;11.358;2023-02-18T09:41:29;1.80;;;1.60;;
68196;SDS011;55019;49.382;11.358;2023-02-18T09:44:04;1.83;;;1.40;;
68196;SDS011;55019;49.382;11.358;2023-02-18T09:46:38;2.72;;;1.55;;
68196;SDS011;55019;49.382;11.358;2023-02-18T09:49:11;2.15;;;1.88;;
68196;SDS011;55019;49.382;11.358;2023-02-18T09:51:40;2.42;;;1.65;;
68196;SDS011;55019;49.382;11.358;2023-02-18T09:54:08;2.97;;;1.58;;
68196;SDS011;55019;49.382;11.358;2023-02-18T09:56:36;2.60;;;1.80;;
68196;SDS011;55019;49.382;11.358;2023-02-18T09:59:03;2.95;;;1.70;;
68196;SDS011;55019;49.382;11.358;2023-02-18T10:01:35;2.55;;;2.15;;
68196;SDS011;55019;49.382;11.358;2023-02-18T10:04:03;2.90;;;1.50;;
68196;SDS011;55019;49.382;11.358;2023-02-18T10:06:36;1.73;;;1.42;;
68196;SDS011;55019;49.382;11.358;2023-02-18T10:09:03;3.70;;;1.70;;
68196;SDS011;55019;49.382;11.358;2023-02-18T10:11:42;2.05;;;1.85;;
68196;SDS011;55019;49.382;11.358;2023-02-18T10:14:11;2.55;;;1.88;;
68196;SDS011;55019;49.382;11.358;2023-02-18T10:16:38;2.67;;;1.58;;
68196;SDS011;55019;49.382;11.358;2023-02-18T10:22:14;2.38;;;1.38;;
68196;SDS011;55019;49.382;11.358;2023-02-18T10:27:29;1.63;;;1.52;;
68196;SDS011;55019;49.382;11.358;2023-02-18T10:30:02;3.70;;;2.50;;
68196;SDS011;55019;49.382;11.358;2023-02-18T10:32:52;1.98;;;1.33;;
68196;SDS011;55019;49.382;11.358;2023-02-18T10:52:01;1.80;;;1.48;;
68196;SDS011;55019;49.382;11.358;2023-02-18T10:54:46;2.08;;;1.50;;
68196;SDS011;55019;49.382;11.358;2023-02-18T10:57:29;2.20;;;1.73;;
68196;SDS011;55019;49.382;11.358;2023-02-18T11:02:34;2.45;;;1.63;;
68196;SDS011;55019;49.382;11.358;2023-02-18T11:05:04;2.35;;;2.15;;
68196;SDS011;55019;49.382;11.358;2023-02-18T11:07:40;2.95;;;1.88;;
68196;SDS011;55019;49.382;11.358;2023-02-18T11:10:30;3.63;;;1.92;;
68196;SDS011;55019;49.382;11.358;2023-02-18T11:13:40;2.05;;;1.55;;
68196;SDS011;55019;49.382;11.358;2023-02-18T11:16:00;1.80;;;1.42;;
68196;SDS011;55019;49.382;11.358;2023-02-18T11:21:06;2.05;;;1.85;;
68196;SDS011;55019;49.382;11.358;2023-02-18T11:23:50;2.85;;;1.73;;
68196;SDS011;55019;49.382;11.358;2023-02-18T11:26:17;2.08;;;1.80;;
68196;SDS011;55019;49.382;11.358;2023-02-18T11:28:51;2.92;;;2.40;;
68196;SDS011;55019;49.382;11.358;2023-02-18T11:33:54;1.50;;;1.40;;
68196;SDS011;55019;49.382;11.358;2023-02-18T11:36:33;3.10;;;2.15;;
68196;SDS011;55019;49.382;11.358;2023-02-18T11:39:13;2.40;;;1.92;;
68196;SDS011;55019;49.382;11.358;2023-02-18T11:41:42;2.92;;;1.90;;
68196;SDS011;55019;49.382;11.358;2023-02-18T11:44:21;2.10;;;1.67;;
68196;SDS011;55019;49.382;11.358;2023-02-18T11:47:22;2.88;;;1.98;;
68196;SDS011;55019;49.382;11.358;2023-02-18T11:49:40;3.42;;;1.90;;
68196;SDS011;55019;49.382;11.358;2023-02-18T11:57:32;3.15;;;2.00;;
68196;SDS011;55019;49.382;11.358;2023-02-18T12:00:02;3.38;;;1.95;;
68196;SDS011;55019;49.382;11.358;2023-02-18T12:02:39;2.10;;;1.55;;
68196;SDS011;55019;49.382;11.358;2023-02-18T12:05:13;3.13;;;1.70;;
68196;SDS011;55019;49.382;11.358;2023-02-18T12:07:49;2.20;;;1.40;;
68196;SDS011;55019;49.382;11.358;2023-02-18T12:10:21;1.80;;;1.52;;
68196;SDS011;55019;49.382;11.358;2023-02-18T12:12:53;2.10;;;1.40;;
68196;SDS011;55019;49.382;11.358;2023-02-18T12:46:31;4.65;;;3.65;;
68196;SDS011;55019;49.382;11.358;2023-02-18T12:57:50;1.73;;;1.02;;
68196;SDS011;55019;49.382;11.358;2023-02-18T13:02:57;1.40;;;1.00;;
68196;SDS011;55019;49.382;11.358;2023-02-18T13:05:43;1.42;;;1.10;;
68196;SDS011;55019;49.382;11.358;2023-02-18T13:14:19;2.22;;;1.15;;
68196;SDS011;55019;49.382;11.358;2023-02-18T13:16:48;1.08;;;0.93;;
68196;SDS011;55019;49.382;11.358;2023-02-18T13:21:52;1.58;;;1.10;;
68196;SDS011;55019;49.382;11.358;2023-02-18T13:27:02;2.65;;;2.15;;
68196;SDS011;55019;49.382;11.358;2023-02-18T13:30:18;1.70;;;1.35;;
68196;SDS011;55019;49.382;11.358;2023-02-18T13:35:43;1.58;;;1.40;;
68196;SDS011;55019;49.382;11.358;2023-02-18T13:41:15;3.13;;;1.38;;
68196;SDS011;55019;49.382;11.358;2023-02-18T13:43:41;1.92;;;1.70;;
68196;SDS011;55019;49.382;11.358;2023-02-18T13:46:14;1.50;;;1.40;;
68196;SDS011;55019;49.382;11.358;2023-02-18T13:48:50;1.33;;;1.00;;
68196;SDS011;55019;49.382;11.358;2023-02-18T13:51:29;1.50;;;1.27;;
68196;SDS011;55019;49.382;11.358;2023-02-18T13:54:03;1.58;;;1.33;;
68196;SDS011;55019;49.382;11.358;2023-02-18T13:57:12;1.52;;;1.40;;
68196;SDS011;55019;49.382;11.358;2023-02-18T13:59:41;2.13;;;1.40;;
68196;SDS011;55019;49.382;11.358;2023-02-18T14:10:23;2.03;;;1.42;;
68196;SDS011;55019;49.382;11.358;2023-02-18T14:17:48;2.38;;;2.08;;
68196;SDS011;55019;49.382;11.358;2023-02-18T14:26:00;2.38;;;1.50;;
68196;SDS011;55019;49.382;11.358;2023-02-18T14:31:16;2.05;;;1.42;;
68196;SDS011;55019;49.382;11.358;2023-02-18T14:50:43;2.20;;;1.38;;
68196;SDS011;55019;49.382;11.358;2023-02-18T14:53:13;2.53;;;1.35;;
68196;SDS011;55019;49.382;11.358;2023-02-18T14:55:47;2.15;;;1.27;;
68196;SDS011;55019;49.382;11.358;2023-02-18T14:58:28;1.60;;;1.13;;
68196;SDS011;55019;49.382;11.358;2023-02-18T15:01:06;2.10;;;1.60;;
68196;SDS011;55019;49.382;11.358;2023-02-18T15:03:38;3.40;;;2.08;;
68196;SDS011;55019;49.382;11.358;2023-02-18T15:06:20;2.30;;;1.20;;
68196;SDS011;55019;49.382;11.358;2023-02-18T15:09:17;1.25;;;1.08;;
68196;SDS011;55019;49.382;11.358;2023-02-18T15:11:52;1.85;;;1.45;;
68196;SDS011;55019;49.382;11.358;2023-02-18T15:14:26;1.80;;;1.30;;
68196;SDS011;55019;49.382;11.358;2023-02-18T15:19:26;1.90;;;1.40;;
68196;SDS011;55019;49.382;11.358;2023-02-18T15:21:56;2.85;;;1.52;;
68196;SDS011;55019;49.382;11.358;2023-02-18T15:26:55;3.38;;;1.42;;
68196;SDS011;55019;49.382;11.358;2023-02-18T15:29:25;2.25;;;1.73;;
68196;SDS011;55019;49.382;11.358;2023-02-18T15:31:53;2.42;;;1.95;;
68196;SDS011;55019;49.382;11.358;2023-02-18T15:36:53;2.90;;;1.73;;
68196;SDS011;55019;49.382;11.358;2023-02-18T15:39:19;3.00;;;2.00;;
68196;SDS011;55019;49.382;11.358;2023-02-18T15:41:44;2.17;;;1.55;;
68196;SDS011;55019;49.382;11.358;2023-02-18T15:44:21;2.33;;;1.75;;
68196;SDS011;55019;49.382;11.358;2023-02-18T15:46:49;2.67;;;1.73;;
68196;SDS011;55019;49.382;11.358;2023-02-18T15:49:23;2.67;;;1.88;;
68196;SDS011;55019;49.382;11.358;2023-02-18T15:51:49;3.05;;;2.13;;
68196;SDS011;55019;49.382;11.358;2023-02-18T15:54:20;3.47;;;2.10;;
68196;SDS011;55019;49.382;11.358;2023-02-18T15:56:51;3.10;;;1.90;;
68196;SDS011;55019;49.382;11.358;2023-02-18T15:59:26;2.38;;;1.70;;
68196;SDS011;55019;49.382;11.358;2023-02-18T16:04:33;3.08;;;1.85;;
68196;SDS011;55019;49.382;11.358;2023-02-18T16:07:16;4.85;;;1.90;;
68196;SDS011;55019;49.382;11.358;2023-02-18T16:09:45;2.97;;;1.85;;
68196;SDS011;55019;49.382;11.358;2023-02-18T16:12:15;2.60;;;1.88;;
68196;SDS011;55019;49.382;11.358;2023-02-18T16:14:52;2.40;;;1.73;;
68196;SDS011;55019;49.382;11.358;2023-02-18T16:17:21;3.38;;;2.40;;
68196;SDS011;55019;49.382;11.358;2023-02-18T16:19:51;3.60;;;1.98;;
68196;SDS011;55019;49.382;11.358;2023-02-18T16:22:43;4.00;;;2.00;;
68196;SDS011;55019;49.382;11.358;2023-02-18T16:25:15;3.45;;;2.22;;
68196;SDS011;55019;49.382;11.358;2023-02-18T16:27:50;2.95;;;1.85;;
68196;SDS011;55019;49.382;11.358;2023-02-18T16:30:25;2.63;;;2.30;;
68196;SDS011;55019;49.382;11.358;2023-02-18T16:32:53;4.53;;;2.33;;
68196;SDS011;55019;49.382;11.358;2023-02-18T16:35:19;2.35;;;1.88;;
68196;SDS011;55019;49.382;11.358;2023-02-18T16:37:46;2.40;;;1.92;;
68196;SDS011;55019;49.382;11.358;2023-02-18T16:42:42;3.22;;;2.25;;
68196;SDS011;55019;49.382;11.358;2023-02-18T16:45:10;2.85;;;1.98;;
68196;SDS011;55019;49.382;11.358;2023-02-18T16:47:36;2.63;;;1.90;;
68196;SDS011;55019;49.382;11.358;2023-02-18T16:50:02;4.20;;;3.20;;
68196;SDS011;55019;49.382;11.358;2023-02-18T16:52:28;3.85;;;2.55;;
68196;SDS011;55019;49.382;11.358;2023-02-18T16:54:54;3.95;;;2.97;;
68196;SDS011;55019;49.382;11.358;2023-02-18T16:57:19;4.00;;;2.08;;
68196;SDS011;55019;49.382;11.358;2023-02-18T16:59:45;3.60;;;2.28;;
68196;SDS011;55019;49.382;11.358;2023-02-18T17:02:20;3.90;;;2.42;;
68196;SDS011;55019;49.382;11.358;2023-02-18T17:04:46;3.20;;;2.33;;
68196;SDS011;55019;49.382;11.358;2023-02-18T17:07:12;4.18;;;2.63;;
68196;SDS011;55019;49.382;11.358;2023-02-18T17:09:38;4.57;;;2.70;;
68196;SDS011;55019;49.382;11.358;2023-02-18T17:12:03;5.13;;;3.13;;
68196;SDS011;55019;49.382;11.358;2023-02-18T17:14:29;4.05;;;2.50;;
68196;SDS011;55019;49.382;11.358;2023-02-18T17:16:55;5.70;;;2.80;;
68196;SDS011;55019;49.382;11.358;2023-02-18T17:19:22;6.05;;;2.60;;
68196;SDS011;55019;49.382;11.358;2023-02-18T17:21:48;4.80;;;3.30;;
68196;SDS011;55019;49.382;11.358;2023-02-18T17:24:15;4.85;;;3.42;;
68196;SDS011;55019;49.382;11.358;2023-02-18T17:26:42;5.20;;;2.92;;
68196;SDS011;55019;49.382;11.358;2023-02-18T17:29:08;4.20;;;3.08;;
68196;SDS011;55019;49.382;11.358;2023-02-18T17:31:41;3.65;;;2.50;;
68196;SDS011;55019;49.382;11.358;2023-02-18T17:34:13;4.80;;;3.05;;
68196;SDS011;55019;49.382;11.358;2023-02-18T17:36:42;4.30;;;3.08;;
68196;SDS011;55019;49.382;11.358;2023-02-18T17:39:13;5.85;;;3.25;;
68196;SDS011;55019;49.382;11.358;2023-02-18T17:41:40;3.88;;;3.28;;
68196;SDS011;55019;49.382;11.358;2023-02-18T17:44:12;4.18;;;3.15;;
68196;SDS011;55019;49.382;11.358;2023-02-18T17:46:39;3.83;;;2.78;;
68196;SDS011;55019;49.382;11.358;2023-02-18T17:49:05;4.55;;;3.15;;
68196;SDS011;55019;49.382;11.358;2023-02-18T17:51:30;4.20;;;3.00;;
68196;SDS011;55019;49.382;11.358;2023-02-18T17:53:56;9.20;;;4.70;;